sensor_id;sensor_type;location;lat;lon;timestamp;temperature;humidity
46400;DHT22;32104;50.838;4.388;2023-06-26T00:00:03;24.20;99.90
46400;DHT22;32104;50.838;4.388;2023-06-26T00:02:32;24.10;99.90
46400;DHT22;32104;50.838;4.388;2023-06-26T00:05:00;24.00;99.90
46400;DHT22;32104;50.838;4.388;2023-06-26T00:07:28;24.00;99.90
46400;DHT22;32104;50.838;4.388;2023-06-26T00:09:56;24.00;99.90
46400;DHT22;32104;50.838;4.388;2023-06-26T00:12:22;23.80;99.90
46400;DHT22;32104;50.838;4.388;2023-06-26T00:14:48;23.70;99.90
46400;DHT22;32104;50.838;4.388;2023-06-26T00:17:20;23.70;99.90
46400;DHT22;32104;50.838;4.388;2023-06-26T00:19:49;23.50;99.90
46400;DHT22;32104;50.838;4.388;2023-06-26T00:22:22;23.60;99.90
46400;DHT22;32104;50.838;4.388;2023-06-26T00:24:47;23.40;99.90
46400;DHT22;32104;50.838;4.388;2023-06-26T00:27:13;23.40;99.90
46400;DHT22;32104;50.838;4.388;2023-06-26T00:29:39;23.30;99.90
46400;DHT22;32104;50.838;4.388;2023-06-26T00:32:06;23.20;99.90
46400;DHT22;32104;50.838;4.388;2023-06-26T00:34:32;23.20;99.90
46400;DHT22;32104;50.838;4.388;2023-06-26T00:36:59;23.30;99.90
46400;DHT22;32104;50.838;4.388;2023-06-26T00:39:27;23.10;99.90
46400;DHT22;32104;50.838;4.388;2023-06-26T00:41:53;23.00;99.90
46400;DHT22;32104;50.838;4.388;2023-06-26T00:44:24;23.00;99.90
46400;DHT22;32104;50.838;4.388;2023-06-26T00:46:50;22.90;99.90
46400;DHT22;32104;50.838;4.388;2023-06-26T00:49:17;22.80;99.90
46400;DHT22;32104;50.838;4.388;2023-06-26T00:51:43;22.70;99.90
46400;DHT22;32104;50.838;4.388;2023-06-26T00:54:09;22.70;99.90
46400;DHT22;32104;50.838;4.388;2023-06-26T00:56:35;22.50;99.90
46400;DHT22;32104;50.838;4.388;2023-06-26T00:59:01;22.50;99.90
46400;DHT22;32104;50.838;4.388;2023-06-26T01:01:27;22.40;99.90
46400;DHT22;32104;50.838;4.388;2023-06-26T01:03:53;22.30;99.90
46400;DHT22;32104;50.838;4.388;2023-06-26T01:06:23;22.30;99.90
46400;DHT22;32104;50.838;4.388;2023-06-26T01:08:50;22.30;99.90
46400;DHT22;32104;50.838;4.388;2023-06-26T01:11:16;22.20;99.90
46400;DHT22;32104;50.838;4.388;2023-06-26T01:13:43;22.30;99.90
46400;DHT22;32104;50.838;4.388;2023-06-26T01:16:11;22.30;99.90
46400;DHT22;32104;50.838;4.388;2023-06-26T01:18:41;22.20;99.90
46400;DHT22;32104;50.838;4.388;2023-06-26T01:21:10;22.10;99.90
46400;DHT22;32104;50.838;4.388;2023-06-26T01:24:05;22.00;99.90
46400;DHT22;32104;50.838;4.388;2023-06-26T01:26:35;22.10;99.90
46400;DHT22;32104;50.838;4.388;2023-06-26T01:29:04;22.10;99.90
46400;DHT22;32104;50.838;4.388;2023-06-26T01:31:32;22.10;99.90
46400;DHT22;32104;50.838;4.388;2023-06-26T01:33:59;21.90;99.90
46400;DHT22;32104;50.838;4.388;2023-06-26T01:36:26;21.90;99.90
46400;DHT22;32104;50.838;4.388;2023-06-26T01:38:53;22.00;99.90
46400;DHT22;32104;50.838;4.388;2023-06-26T01:41:19;22.10;99.90
46400;DHT22;32104;50.838;4.388;2023-06-26T01:44:11;22.00;99.90
46400;DHT22;32104;50.838;4.388;2023-06-26T01:54:39;22.20;99.90
46400;DHT22;32104;50.838;4.388;2023-06-26T01:57:08;21.90;99.90
46400;DHT22;32104;50.838;4.388;2023-06-26T01:59:35;21.80;99.90
46400;DHT22;32104;50.838;4.388;2023-06-26T02:02:02;21.70;99.90
46400;DHT22;32104;50.838;4.388;2023-06-26T02:04:32;21.70;99.90
46400;DHT22;32104;50.838;4.388;2023-06-26T02:06:57;21.80;99.90
46400;DHT22;32104;50.838;4.388;2023-06-26T02:09:24;21.80;99.90
46400;DHT22;32104;50.838;4.388;2023-06-26T02:11:50;21.70;99.90
46400;DHT22;32104;50.838;4.388;2023-06-26T02:14:16;21.60;99.90
46400;DHT22;32104;50.838;4.388;2023-06-26T02:16:41;21.40;99.90
46400;DHT22;32104;50.838;4.388;2023-06-26T02:19:07;21.40;99.90
46400;DHT22;32104;50.838;4.388;2023-06-26T02:21:34;21.40;99.90
46400;DHT22;32104;50.838;4.388;2023-06-26T02:24:01;21.40;99.90
46400;DHT22;32104;50.838;4.388;2023-06-26T02:26:27;21.40;99.90
46400;DHT22;32104;50.838;4.388;2023-06-26T02:28:53;21.30;99.90
46400;DHT22;32104;50.838;4.388;2023-06-26T02:31:19;21.30;99.90
46400;DHT22;32104;50.838;4.388;2023-06-26T02:33:45;21.30;99.90
46400;DHT22;32104;50.838;4.388;2023-06-26T02:36:12;21.30;99.90
46400;DHT22;32104;50.838;4.388;2023-06-26T02:38:37;21.30;99.90
46400;DHT22;32104;50.838;4.388;2023-06-26T02:41:03;21.20;99.90
46400;DHT22;32104;50.838;4.388;2023-06-26T02:43:29;21.20;99.90
46400;DHT22;32104;50.838;4.388;2023-06-26T02:45:58;21.10;99.90
46400;DHT22;32104;50.838;4.388;2023-06-26T02:48:23;21.00;99.90
46400;DHT22;32104;50.838;4.388;2023-06-26T02:50:49;21.10;99.90
46400;DHT22;32104;50.838;4.388;2023-06-26T02:53:15;21.00;99.90
46400;DHT22;32104;50.838;4.388;2023-06-26T02:55:42;21.00;99.90
46400;DHT22;32104;50.838;4.388;2023-06-26T02:58:08;21.00;99.90
46400;DHT22;32104;50.838;4.388;2023-06-26T03:00:35;20.90;99.90
46400;DHT22;32104;50.838;4.388;2023-06-26T03:03:07;20.90;99.90
46400;DHT22;32104;50.838;4.388;2023-06-26T03:05:33;20.80;99.90
46400;DHT22;32104;50.838;4.388;2023-06-26T03:07:58;20.80;99.90
46400;DHT22;32104;50.838;4.388;2023-06-26T03:10:24;20.70;99.90
46400;DHT22;32104;50.838;4.388;2023-06-26T03:12:50;20.60;99.90
46400;DHT22;32104;50.838;4.388;2023-06-26T03:15:16;20.50;99.90
46400;DHT22;32104;50.838;4.388;2023-06-26T03:17:41;20.40;99.90
46400;DHT22;32104;50.838;4.388;2023-06-26T03:20:08;20.30;99.90
46400;DHT22;32104;50.838;4.388;2023-06-26T03:22:34;20.40;99.90
46400;DHT22;32104;50.838;4.388;2023-06-26T03:25:02;20.50;99.90
46400;DHT22;32104;50.838;4.388;2023-06-26T03:27:28;20.50;99.90
46400;DHT22;32104;50.838;4.388;2023-06-26T03:29:54;20.40;99.90
46400;DHT22;32104;50.838;4.388;2023-06-26T03:32:19;20.30;99.90
46400;DHT22;32104;50.838;4.388;2023-06-26T03:34:59;20.30;99.90
46400;DHT22;32104;50.838;4.388;2023-06-26T03:37:26;20.10;99.90
46400;DHT22;32104;50.838;4.388;2023-06-26T03:39:52;20.10;99.90
46400;DHT22;32104;50.838;4.388;2023-06-26T03:42:17;19.90;99.90
46400;DHT22;32104;50.838;4.388;2023-06-26T03:44:43;20.00;99.90
46400;DHT22;32104;50.838;4.388;2023-06-26T03:47:09;20.00;99.90
46400;DHT22;32104;50.838;4.388;2023-06-26T03:49:34;20.00;99.90
46400;DHT22;32104;50.838;4.388;2023-06-26T03:52:00;20.10;99.90
46400;DHT22;32104;50.838;4.388;2023-06-26T03:54:28;20.00;99.90
46400;DHT22;32104;50.838;4.388;2023-06-26T03:56:54;20.00;99.90
46400;DHT22;32104;50.838;4.388;2023-06-26T03:59:20;19.90;99.90
46400;DHT22;32104;50.838;4.388;2023-06-26T04:01:47;19.80;99.90
46400;DHT22;32104;50.838;4.388;2023-06-26T04:04:12;19.90;99.90
46400;DHT22;32104;50.838;4.388;2023-06-26T04:06:39;19.80;99.90
46400;DHT22;32104;50.838;4.388;2023-06-26T04:09:05;19.60;99.90
46400;DHT22;32104;50.838;4.388;2023-06-26T04:11:32;19.70;99.90
46400;DHT22;32104;50.838;4.388;2023-06-26T04:13:58;19.80;99.90
46400;DHT22;32104;50.838;4.388;2023-06-26T04:16:27;19.80;99.90
46400;DHT22;32104;50.838;4.388;2023-06-26T04:18:54;19.70;99.90
46400;DHT22;32104;50.838;4.388;2023-06-26T04:21:23;19.70;99.90
46400;DHT22;32104;50.838;4.388;2023-06-26T04:23:52;19.80;99.90
46400;DHT22;32104;50.838;4.388;2023-06-26T04:26:17;19.80;99.90
46400;DHT22;32104;50.838;4.388;2023-06-26T04:28:43;19.80;99.90
46400;DHT22;32104;50.838;4.388;2023-06-26T04:31:10;19.70;99.90
46400;DHT22;32104;50.838;4.388;2023-06-26T04:33:37;19.60;99.90
46400;DHT22;32104;50.838;4.388;2023-06-26T04:36:04;19.60;99.90
46400;DHT22;32104;50.838;4.388;2023-06-26T04:38:35;19.60;99.90
46400;DHT22;32104;50.838;4.388;2023-06-26T04:41:04;19.80;99.90
46400;DHT22;32104;50.838;4.388;2023-06-26T04:43:36;19.80;99.90
46400;DHT22;32104;50.838;4.388;2023-06-26T04:46:05;19.80;99.90
46400;DHT22;32104;50.838;4.388;2023-06-26T04:48:32;19.80;99.90
46400;DHT22;32104;50.838;4.388;2023-06-26T04:50:57;19.80;99.90
46400;DHT22;32104;50.838;4.388;2023-06-26T04:53:24;19.80;99.90
46400;DHT22;32104;50.838;4.388;2023-06-26T04:55:54;19.70;99.90
46400;DHT22;32104;50.838;4.388;2023-06-26T04:58:20;19.70;99.90
46400;DHT22;32104;50.838;4.388;2023-06-26T05:00:46;19.60;99.90
46400;DHT22;32104;50.838;4.388;2023-06-26T05:03:13;19.70;99.90
46400;DHT22;32104;50.838;4.388;2023-06-26T05:05:39;19.70;99.90
46400;DHT22;32104;50.838;4.388;2023-06-26T05:08:21;19.60;99.90
46400;DHT22;32104;50.838;4.388;2023-06-26T05:10:47;19.60;99.90
46400;DHT22;32104;50.838;4.388;2023-06-26T05:13:13;19.60;99.90
46400;DHT22;32104;50.838;4.388;2023-06-26T05:15:43;19.50;99.90
46400;DHT22;32104;50.838;4.388;2023-06-26T05:18:09;19.50;99.90
46400;DHT22;32104;50.838;4.388;2023-06-26T05:20:36;19.30;99.90
46400;DHT22;32104;50.838;4.388;2023-06-26T05:23:03;19.30;99.90
46400;DHT22;32104;50.838;4.388;2023-06-26T05:25:48;19.30;99.90
46400;DHT22;32104;50.838;4.388;2023-06-26T05:28:26;19.20;99.90
46400;DHT22;32104;50.838;4.388;2023-06-26T05:30:58;19.30;99.90
46400;DHT22;32104;50.838;4.388;2023-06-26T05:33:57;19.30;99.90
46400;DHT22;32104;50.838;4.388;2023-06-26T05:36:31;19.30;99.90
46400;DHT22;32104;50.838;4.388;2023-06-26T05:38:59;19.20;99.90
46400;DHT22;32104;50.838;4.388;2023-06-26T05:41:27;19.10;99.90
46400;DHT22;32104;50.838;4.388;2023-06-26T05:43:53;19.20;99.90
46400;DHT22;32104;50.838;4.388;2023-06-26T05:46:20;19.20;99.90
46400;DHT22;32104;50.838;4.388;2023-06-26T05:48:46;19.20;99.90
46400;DHT22;32104;50.838;4.388;2023-06-26T05:51:13;19.30;99.90
46400;DHT22;32104;50.838;4.388;2023-06-26T05:53:39;19.30;99.90
46400;DHT22;32104;50.838;4.388;2023-06-26T05:56:04;19.30;99.90
46400;DHT22;32104;50.838;4.388;2023-06-26T05:58:30;19.30;99.90
46400;DHT22;32104;50.838;4.388;2023-06-26T06:00:56;19.10;99.90
46400;DHT22;32104;50.838;4.388;2023-06-26T06:03:22;19.20;99.90
46400;DHT22;32104;50.838;4.388;2023-06-26T06:05:48;19.30;99.90
46400;DHT22;32104;50.838;4.388;2023-06-26T06:08:14;19.40;99.90
46400;DHT22;32104;50.838;4.388;2023-06-26T06:10:40;19.40;99.90
46400;DHT22;32104;50.838;4.388;2023-06-26T06:13:07;19.60;99.90
46400;DHT22;32104;50.838;4.388;2023-06-26T06:18:55;19.90;99.90
46400;DHT22;32104;50.838;4.388;2023-06-26T06:24:29;20.40;99.90
46400;DHT22;32104;50.838;4.388;2023-06-26T06:26:55;20.60;99.90
46400;DHT22;32104;50.838;4.388;2023-06-26T06:29:26;20.80;99.90
46400;DHT22;32104;50.838;4.388;2023-06-26T06:31:54;20.60;99.90
46400;DHT22;32104;50.838;4.388;2023-06-26T06:34:20;20.80;99.90
46400;DHT22;32104;50.838;4.388;2023-06-26T06:36:46;21.10;99.90
46400;DHT22;32104;50.838;4.388;2023-06-26T06:39:18;21.20;99.90
46400;DHT22;32104;50.838;4.388;2023-06-26T06:41:44;21.40;99.90
46400;DHT22;32104;50.838;4.388;2023-06-26T06:44:17;21.40;99.90
46400;DHT22;32104;50.838;4.388;2023-06-26T06:46:55;21.60;99.90
46400;DHT22;32104;50.838;4.388;2023-06-26T06:56:42;21.90;99.90
46400;DHT22;32104;50.838;4.388;2023-06-26T19:45:36;21.30;99.90
46400;DHT22;32104;50.838;4.388;2023-06-26T19:52:48;21.30;99.90
46400;DHT22;32104;50.838;4.388;2023-06-26T20:02:59;21.30;99.90
46400;DHT22;32104;50.838;4.388;2023-06-26T20:06:02;21.30;99.90
46400;DHT22;32104;50.838;4.388;2023-06-26T20:09:24;21.30;99.90
46400;DHT22;32104;50.838;4.388;2023-06-26T20:19:02;21.30;99.90
46400;DHT22;32104;50.838;4.388;2023-06-26T20:25:58;21.20;99.90
46400;DHT22;32104;50.838;4.388;2023-06-26T20:29:07;21.20;99.90
46400;DHT22;32104;50.838;4.388;2023-06-26T20:32:21;21.10;99.90
46400;DHT22;32104;50.838;4.388;2023-06-26T20:35:33;21.20;99.90
46400;DHT22;32104;50.838;4.388;2023-06-26T20:42:22;21.10;99.90
46400;DHT22;32104;50.838;4.388;2023-06-26T20:45:17;21.10;99.90
46400;DHT22;32104;50.838;4.388;2023-06-26T20:48:13;21.00;99.90
46400;DHT22;32104;50.838;4.388;2023-06-26T20:51:29;20.90;99.90
46400;DHT22;32104;50.838;4.388;2023-06-26T20:54:36;20.90;99.90
46400;DHT22;32104;50.838;4.388;2023-06-26T20:58:18;20.70;99.90
46400;DHT22;32104;50.838;4.388;2023-06-26T21:01:05;20.80;99.90
46400;DHT22;32104;50.838;4.388;2023-06-26T21:04:03;20.70;99.90
46400;DHT22;32104;50.838;4.388;2023-06-26T21:06:56;20.50;99.90
46400;DHT22;32104;50.838;4.388;2023-06-26T21:10:41;20.50;99.90
46400;DHT22;32104;50.838;4.388;2023-06-26T21:13:17;20.40;99.90
46400;DHT22;32104;50.838;4.388;2023-06-26T21:16:06;20.40;99.90
46400;DHT22;32104;50.838;4.388;2023-06-26T21:18:44;20.50;99.90
46400;DHT22;32104;50.838;4.388;2023-06-26T21:21:44;20.50;99.90
46400;DHT22;32104;50.838;4.388;2023-06-26T21:24:10;20.40;99.90
46400;DHT22;32104;50.838;4.388;2023-06-26T21:26:42;20.50;99.90
46400;DHT22;32104;50.838;4.388;2023-06-26T21:32:25;20.40;99.90
46400;DHT22;32104;50.838;4.388;2023-06-26T21:38:30;20.20;99.90
46400;DHT22;32104;50.838;4.388;2023-06-26T21:41:13;20.20;99.90
46400;DHT22;32104;50.838;4.388;2023-06-26T21:43:59;20.20;99.90
46400;DHT22;32104;50.838;4.388;2023-06-26T21:46:58;20.30;99.90
46400;DHT22;32104;50.838;4.388;2023-06-26T21:49:41;20.20;99.90
46400;DHT22;32104;50.838;4.388;2023-06-26T21:52:11;20.30;99.90
46400;DHT22;32104;50.838;4.388;2023-06-26T21:54:51;20.10;99.90
46400;DHT22;32104;50.838;4.388;2023-06-26T21:57:19;20.10;99.90
46400;DHT22;32104;50.838;4.388;2023-06-26T21:59:45;20.10;99.90
46400;DHT22;32104;50.838;4.388;2023-06-26T22:02:14;20.00;99.90
46400;DHT22;32104;50.838;4.388;2023-06-26T22:04:50;20.00;99.90
46400;DHT22;32104;50.838;4.388;2023-06-26T22:07:29;20.00;99.90
46400;DHT22;32104;50.838;4.388;2023-06-26T22:09:54;20.00;99.90
46400;DHT22;32104;50.838;4.388;2023-06-26T22:12:40;19.90;99.90
46400;DHT22;32104;50.838;4.388;2023-06-26T22:15:37;20.00;99.90
46400;DHT22;32104;50.838;4.388;2023-06-26T22:18:13;19.90;99.90
46400;DHT22;32104;50.838;4.388;2023-06-26T22:24:13;19.70;99.90
46400;DHT22;32104;50.838;4.388;2023-06-26T22:27:05;19.80;99.90
46400;DHT22;32104;50.838;4.388;2023-06-26T22:29:32;19.60;99.90
46400;DHT22;32104;50.838;4.388;2023-06-26T22:31:58;19.60;99.90
46400;DHT22;32104;50.838;4.388;2023-06-26T22:35:04;19.60;99.90
46400;DHT22;32104;50.838;4.388;2023-06-26T22:37:38;19.60;99.90
46400;DHT22;32104;50.838;4.388;2023-06-26T22:40:24;19.50;99.90
46400;DHT22;32104;50.838;4.388;2023-06-26T22:42:50;19.50;99.90
46400;DHT22;32104;50.838;4.388;2023-06-26T22:45:15;19.40;99.90
46400;DHT22;32104;50.838;4.388;2023-06-26T22:47:42;19.40;99.90
46400;DHT22;32104;50.838;4.388;2023-06-26T22:50:12;19.30;99.90
46400;DHT22;32104;50.838;4.388;2023-06-26T22:52:38;19.30;99.90
46400;DHT22;32104;50.838;4.388;2023-06-26T22:55:04;19.30;99.90
46400;DHT22;32104;50.838;4.388;2023-06-26T22:57:30;19.40;99.90
46400;DHT22;32104;50.838;4.388;2023-06-26T22:59:56;19.30;99.90
46400;DHT22;32104;50.838;4.388;2023-06-26T23:02:22;19.30;99.90
46400;DHT22;32104;50.838;4.388;2023-06-26T23:04:50;19.20;99.90
46400;DHT22;32104;50.838;4.388;2023-06-26T23:07:16;19.30;99.90
46400;DHT22;32104;50.838;4.388;2023-06-26T23:09:45;19.20;99.90
46400;DHT22;32104;50.838;4.388;2023-06-26T23:12:12;19.20;99.90
46400;DHT22;32104;50.838;4.388;2023-06-26T23:14:39;19.20;99.90
46400;DHT22;32104;50.838;4.388;2023-06-26T23:17:05;19.20;99.90
46400;DHT22;32104;50.838;4.388;2023-06-26T23:19:31;19.20;99.90
46400;DHT22;32104;50.838;4.388;2023-06-26T23:21:58;19.20;99.90
46400;DHT22;32104;50.838;4.388;2023-06-26T23:24:26;19.20;99.90
46400;DHT22;32104;50.838;4.388;2023-06-26T23:26:54;19.10;99.90
46400;DHT22;32104;50.838;4.388;2023-06-26T23:29:24;19.10;99.90
46400;DHT22;32104;50.838;4.388;2023-06-26T23:31:50;19.00;99.90
46400;DHT22;32104;50.838;4.388;2023-06-26T23:34:16;18.90;99.90
46400;DHT22;32104;50.838;4.388;2023-06-26T23:36:44;19.00;99.90
46400;DHT22;32104;50.838;4.388;2023-06-26T23:39:13;18.90;99.90
46400;DHT22;32104;50.838;4.388;2023-06-26T23:41:38;18.90;99.90
46400;DHT22;32104;50.838;4.388;2023-06-26T23:44:05;19.00;99.90
46400;DHT22;32104;50.838;4.388;2023-06-26T23:46:34;19.00;99.90
46400;DHT22;32104;50.838;4.388;2023-06-26T23:48:59;19.00;99.90
46400;DHT22;32104;50.838;4.388;2023-06-26T23:51:25;19.00;99.90
46400;DHT22;32104;50.838;4.388;2023-06-26T23:53:51;18.90;99.90
46400;DHT22;32104;50.838;4.388;2023-06-26T23:56:19;18.90;99.90
46400;DHT22;32104;50.838;4.388;2023-06-26T23:58:45;18.90;99.90
